sensor_id;sensor_type;location;lat;lon;timestamp;temperature;humidity
3100;DHT22;1560;52.746;13.474;2022-07-11T00:01:42;14.50;1.00
3100;DHT22;1560;52.746;13.474;2022-07-11T00:04:10;14.40;1.00
3100;DHT22;1560;52.746;13.474;2022-07-11T00:06:39;14.40;1.00
3100;DHT22;1560;52.746;13.474;2022-07-11T00:11:44;14.40;55.50
3100;DHT22;1560;52.746;13.474;2022-07-11T00:16:49;14.10;99.90
3100;DHT22;1560;52.746;13.474;2022-07-11T00:19:18;14.10;99.90
3100;DHT22;1560;52.746;13.474;2022-07-11T00:21:48;14.10;99.90
3100;DHT22;1560;52.746;13.474;2022-07-11T00:24:18;14.20;99.90
3100;DHT22;1560;52.746;13.474;2022-07-11T00:26:48;14.20;99.90
3100;DHT22;1560;52.746;13.474;2022-07-11T00:31:53;14.20;99.90
3100;DHT22;1560;52.746;13.474;2022-07-11T00:34:23;14.20;99.90
3100;DHT22;1560;52.746;13.474;2022-07-11T00:36:52;14.20;99.90
3100;DHT22;1560;52.746;13.474;2022-07-11T00:39:21;14.20;99.90
3100;DHT22;1560;52.746;13.474;2022-07-11T00:41:51;14.20;99.90
3100;DHT22;1560;52.746;13.474;2022-07-11T00:46:56;14.00;1.00
3100;DHT22;1560;52.746;13.474;2022-07-11T00:49:25;13.90;1.00
3100;DHT22;1560;52.746;13.474;2022-07-11T00:51:53;13.90;1.00
3100;DHT22;1560;52.746;13.474;2022-07-11T00:56:58;13.90;1.00
3100;DHT22;1560;52.746;13.474;2022-07-11T00:59:28;14.00;1.00
3100;DHT22;1560;52.746;13.474;2022-07-11T01:01:57;14.00;1.00
3100;DHT22;1560;52.746;13.474;2022-07-11T01:04:27;13.90;1.00
3100;DHT22;1560;52.746;13.474;2022-07-11T01:06:55;13.80;1.00
3100;DHT22;1560;52.746;13.474;2022-07-11T01:09:24;13.70;1.00
3100;DHT22;1560;52.746;13.474;2022-07-11T01:11:53;13.60;1.00
3100;DHT22;1560;52.746;13.474;2022-07-11T01:14:22;13.70;1.00
3100;DHT22;1560;52.746;13.474;2022-07-11T01:16:50;13.80;1.00
3100;DHT22;1560;52.746;13.474;2022-07-11T01:19:19;13.70;1.00
3100;DHT22;1560;52.746;13.474;2022-07-11T01:21:49;13.70;1.00
3100;DHT22;1560;52.746;13.474;2022-07-11T01:26:56;13.80;1.00
3100;DHT22;1560;52.746;13.474;2022-07-11T01:29:24;13.80;1.00
3100;DHT22;1560;52.746;13.474;2022-07-11T01:31:53;13.80;1.00
3100;DHT22;1560;52.746;13.474;2022-07-11T01:39:36;13.70;1.00
3100;DHT22;1560;52.746;13.474;2022-07-11T01:42:05;13.70;1.00
3100;DHT22;1560;52.746;13.474;2022-07-11T01:44:34;13.70;1.00
3100;DHT22;1560;52.746;13.474;2022-07-11T01:49:39;13.60;1.00
3100;DHT22;1560;52.746;13.474;2022-07-11T01:52:10;13.60;1.00
3100;DHT22;1560;52.746;13.474;2022-07-11T01:57:15;13.50;1.00
3100;DHT22;1560;52.746;13.474;2022-07-11T01:59:44;13.50;1.00
3100;DHT22;1560;52.746;13.474;2022-07-11T02:02:14;13.50;1.00
3100;DHT22;1560;52.746;13.474;2022-07-11T02:04:44;13.50;1.00
3100;DHT22;1560;52.746;13.474;2022-07-11T02:09:50;13.50;1.00
3100;DHT22;1560;52.746;13.474;2022-07-11T02:12:19;13.50;1.00
3100;DHT22;1560;52.746;13.474;2022-07-11T02:17:25;13.40;1.00
3100;DHT22;1560;52.746;13.474;2022-07-11T02:19:54;13.50;1.00
3100;DHT22;1560;52.746;13.474;2022-07-11T02:22:24;13.40;1.00
3100;DHT22;1560;52.746;13.474;2022-07-11T02:24:54;13.30;1.00
3100;DHT22;1560;52.746;13.474;2022-07-11T02:30:00;13.20;1.00
3100;DHT22;1560;52.746;13.474;2022-07-11T02:32:29;13.20;1.00
3100;DHT22;1560;52.746;13.474;2022-07-11T02:34:58;13.30;1.00
3100;DHT22;1560;52.746;13.474;2022-07-11T02:40:05;13.30;1.00
3100;DHT22;1560;52.746;13.474;2022-07-11T02:42:34;13.30;1.00
3100;DHT22;1560;52.746;13.474;2022-07-11T02:45:03;13.30;1.00
3100;DHT22;1560;52.746;13.474;2022-07-11T02:50:10;13.30;1.00
3100;DHT22;1560;52.746;13.474;2022-07-11T02:55:18;13.20;1.00
3100;DHT22;1560;52.746;13.474;2022-07-11T02:57:47;13.10;1.00
3100;DHT22;1560;52.746;13.474;2022-07-11T03:02:53;13.10;1.00
3100;DHT22;1560;52.746;13.474;2022-07-11T03:07:58;13.10;1.00
3100;DHT22;1560;52.746;13.474;2022-07-11T03:13:05;13.20;1.00
3100;DHT22;1560;52.746;13.474;2022-07-11T03:18:11;13.20;1.00
3100;DHT22;1560;52.746;13.474;2022-07-11T03:20:40;13.20;1.00
3100;DHT22;1560;52.746;13.474;2022-07-11T03:23:08;13.20;1.00
3100;DHT22;1560;52.746;13.474;2022-07-11T03:25:38;13.20;1.00
3100;DHT22;1560;52.746;13.474;2022-07-11T03:28:08;13.20;1.00
3100;DHT22;1560;52.746;13.474;2022-07-11T03:30:36;13.10;1.00
3100;DHT22;1560;52.746;13.474;2022-07-11T03:35:41;13.00;1.00
3100;DHT22;1560;52.746;13.474;2022-07-11T03:38:12;13.00;1.00
3100;DHT22;1560;52.746;13.474;2022-07-11T03:43:17;12.90;1.00
3100;DHT22;1560;52.746;13.474;2022-07-11T03:48:23;12.90;1.00
3100;DHT22;1560;52.746;13.474;2022-07-11T03:50:52;12.90;1.00
3100;DHT22;1560;52.746;13.474;2022-07-11T03:53:21;12.90;1.00
3100;DHT22;1560;52.746;13.474;2022-07-11T03:55:49;12.80;1.00
3100;DHT22;1560;52.746;13.474;2022-07-11T03:58:18;12.80;1.00
3100;DHT22;1560;52.746;13.474;2022-07-11T04:00:47;12.70;1.00
3100;DHT22;1560;52.746;13.474;2022-07-11T04:03:16;12.70;1.00
3100;DHT22;1560;52.746;13.474;2022-07-11T04:08:23;12.70;1.00
3100;DHT22;1560;52.746;13.474;2022-07-11T04:10:52;12.60;1.00
3100;DHT22;1560;52.746;13.474;2022-07-11T04:13:21;12.60;1.00
3100;DHT22;1560;52.746;13.474;2022-07-11T04:15:50;12.60;1.00
3100;DHT22;1560;52.746;13.474;2022-07-11T04:18:19;12.50;26.00
3100;DHT22;1560;52.746;13.474;2022-07-11T04:20:49;12.50;30.50
3100;DHT22;1560;52.746;13.474;2022-07-11T04:25:56;12.50;32.10
3100;DHT22;1560;52.746;13.474;2022-07-11T04:28:25;12.50;36.40
3100;DHT22;1560;52.746;13.474;2022-07-11T04:30:55;12.50;35.30
3100;DHT22;1560;52.746;13.474;2022-07-11T04:33:23;12.50;30.60
3100;DHT22;1560;52.746;13.474;2022-07-11T04:35:52;12.60;22.90
3100;DHT22;1560;52.746;13.474;2022-07-11T04:40:58;12.60;14.80
3100;DHT22;1560;52.746;13.474;2022-07-11T04:43:27;12.50;39.60
3100;DHT22;1560;52.746;13.474;2022-07-11T04:45:56;12.50;63.90
3100;DHT22;1560;52.746;13.474;2022-07-11T04:51:00;12.60;30.00
3100;DHT22;1560;52.746;13.474;2022-07-11T04:53:29;12.70;11.70
3100;DHT22;1560;52.746;13.474;2022-07-11T04:58:34;12.80;1.00
3100;DHT22;1560;52.746;13.474;2022-07-11T05:01:03;12.80;8.50
3100;DHT22;1560;52.746;13.474;2022-07-11T05:03:32;12.70;11.90
3100;DHT22;1560;52.746;13.474;2022-07-11T05:06:01;12.70;40.50
3100;DHT22;1560;52.746;13.474;2022-07-11T05:11:06;12.60;64.50
3100;DHT22;1560;52.746;13.474;2022-07-11T05:13:34;12.60;75.80
3100;DHT22;1560;52.746;13.474;2022-07-11T05:16:06;12.60;83.30
3100;DHT22;1560;52.746;13.474;2022-07-11T05:18:35;12.70;70.60
3100;DHT22;1560;52.746;13.474;2022-07-11T05:21:05;12.60;94.90
3100;DHT22;1560;52.746;13.474;2022-07-11T05:23:34;12.60;99.90
3100;DHT22;1560;52.746;13.474;2022-07-11T05:28:40;12.70;99.40
3100;DHT22;1560;52.746;13.474;2022-07-11T05:31:09;12.70;92.30
3100;DHT22;1560;52.746;13.474;2022-07-11T05:33:38;12.70;95.80
3100;DHT22;1560;52.746;13.474;2022-07-11T05:36:09;12.70;99.90
3100;DHT22;1560;52.746;13.474;2022-07-11T05:38:38;12.80;99.90
3100;DHT22;1560;52.746;13.474;2022-07-11T05:41:07;12.80;99.90
3100;DHT22;1560;52.746;13.474;2022-07-11T05:43:36;12.80;99.90
3100;DHT22;1560;52.746;13.474;2022-07-11T05:48:45;12.90;99.90
3100;DHT22;1560;52.746;13.474;2022-07-11T05:51:13;13.00;96.40
3100;DHT22;1560;52.746;13.474;2022-07-11T05:53:43;13.00;99.90
3100;DHT22;1560;52.746;13.474;2022-07-11T05:56:12;13.00;99.90
3100;DHT22;1560;52.746;13.474;2022-07-11T05:58:40;13.10;82.70
3100;DHT22;1560;52.746;13.474;2022-07-11T06:01:09;13.20;71.50
3100;DHT22;1560;52.746;13.474;2022-07-11T06:03:38;13.30;87.40
3100;DHT22;1560;52.746;13.474;2022-07-11T06:08:42;13.40;88.30
3100;DHT22;1560;52.746;13.474;2022-07-11T06:11:12;13.50;89.80
3100;DHT22;1560;52.746;13.474;2022-07-11T06:16:19;13.50;91.10
3100;DHT22;1560;52.746;13.474;2022-07-11T06:21:25;13.60;70.00
3100;DHT22;1560;52.746;13.474;2022-07-11T06:26:30;13.80;45.60
3100;DHT22;1560;52.746;13.474;2022-07-11T06:31:36;13.90;67.30
3100;DHT22;1560;52.746;13.474;2022-07-11T06:36:42;14.00;44.00
3100;DHT22;1560;52.746;13.474;2022-07-11T06:39:10;14.00;42.50
3100;DHT22;1560;52.746;13.474;2022-07-11T06:41:39;14.10;42.80
3100;DHT22;1560;52.746;13.474;2022-07-11T06:46:44;14.20;23.30
3100;DHT22;1560;52.746;13.474;2022-07-11T06:49:12;14.30;4.30
3100;DHT22;1560;52.746;13.474;2022-07-11T06:51:41;14.30;1.00
3100;DHT22;1560;52.746;13.474;2022-07-11T06:56:47;14.40;1.00
3100;DHT22;1560;52.746;13.474;2022-07-11T06:59:15;14.50;1.00
3100;DHT22;1560;52.746;13.474;2022-07-11T07:01:44;14.50;1.00
3100;DHT22;1560;52.746;13.474;2022-07-11T07:04:12;14.50;1.00
3100;DHT22;1560;52.746;13.474;2022-07-11T07:06:41;14.50;5.70
3100;DHT22;1560;52.746;13.474;2022-07-11T07:11:45;14.80;17.00
3100;DHT22;1560;52.746;13.474;2022-07-11T07:14:14;14.90;19.80
3100;DHT22;1560;52.746;13.474;2022-07-11T07:19:19;15.10;1.00
3100;DHT22;1560;52.746;13.474;2022-07-11T07:21:48;15.30;1.00
3100;DHT22;1560;52.746;13.474;2022-07-11T07:24:17;15.40;1.00
3100;DHT22;1560;52.746;13.474;2022-07-11T07:26:45;15.50;1.00
3100;DHT22;1560;52.746;13.474;2022-07-11T07:31:50;15.80;1.00
3100;DHT22;1560;52.746;13.474;2022-07-11T07:34:21;15.90;1.00
3100;DHT22;1560;52.746;13.474;2022-07-11T07:36:50;15.90;1.00
3100;DHT22;1560;52.746;13.474;2022-07-11T07:41:54;16.10;1.00
3100;DHT22;1560;52.746;13.474;2022-07-11T07:46:59;16.20;99.90
3100;DHT22;1560;52.746;13.474;2022-07-11T07:49:27;16.30;99.90
3100;DHT22;1560;52.746;13.474;2022-07-11T07:51:56;16.50;99.90
3100;DHT22;1560;52.746;13.474;2022-07-11T07:54:24;16.60;99.90
3100;DHT22;1560;52.746;13.474;2022-07-11T07:59:30;16.70;99.90
3100;DHT22;1560;52.746;13.474;2022-07-11T08:01:59;16.70;99.90
3100;DHT22;1560;52.746;13.474;2022-07-11T08:04:28;16.80;99.90
3100;DHT22;1560;52.746;13.474;2022-07-11T08:06:57;16.90;99.90
3100;DHT22;1560;52.746;13.474;2022-07-11T08:09:27;17.00;77.90
3100;DHT22;1560;52.746;13.474;2022-07-11T08:14:32;17.20;99.90
3100;DHT22;1560;52.746;13.474;2022-07-11T08:17:00;17.30;99.90
3100;DHT22;1560;52.746;13.474;2022-07-11T08:22:05;17.40;1.00
3100;DHT22;1560;52.746;13.474;2022-07-11T08:27:10;17.60;99.90
3100;DHT22;1560;52.746;13.474;2022-07-11T08:29:38;17.70;1.00
3100;DHT22;1560;52.746;13.474;2022-07-11T08:32:08;17.90;43.00
3100;DHT22;1560;52.746;13.474;2022-07-11T08:34:36;18.00;50.70
3100;DHT22;1560;52.746;13.474;2022-07-11T08:37:05;18.10;1.00
3100;DHT22;1560;52.746;13.474;2022-07-11T08:42:09;18.20;99.90
3100;DHT22;1560;52.746;13.474;2022-07-11T08:47:14;18.30;99.90
3100;DHT22;1560;52.746;13.474;2022-07-11T08:49:44;18.40;1.00
3100;DHT22;1560;52.746;13.474;2022-07-11T08:52:14;18.50;99.90
3100;DHT22;1560;52.746;13.474;2022-07-11T08:57:20;18.90;99.90
3100;DHT22;1560;52.746;13.474;2022-07-11T08:59:50;19.20;99.90
3100;DHT22;1560;52.746;13.474;2022-07-11T09:02:20;19.40;1.00
3100;DHT22;1560;52.746;13.474;2022-07-11T09:07:25;19.80;1.00
3100;DHT22;1560;52.746;13.474;2022-07-11T09:09:56;20.10;24.10
3100;DHT22;1560;52.746;13.474;2022-07-11T09:12:24;20.40;40.70
3100;DHT22;1560;52.746;13.474;2022-07-11T09:14:53;20.50;99.90
3100;DHT22;1560;52.746;13.474;2022-07-11T09:20:01;21.00;1.00
3100;DHT22;1560;52.746;13.474;2022-07-11T09:22:29;21.30;99.90
3100;DHT22;1560;52.746;13.474;2022-07-11T09:27:59;21.70;99.90
3100;DHT22;1560;52.746;13.474;2022-07-11T09:33:08;21.90;91.60
3100;DHT22;1560;52.746;13.474;2022-07-11T09:35:38;22.00;1.00
3100;DHT22;1560;52.746;13.474;2022-07-11T09:38:09;22.20;4.00
3100;DHT22;1560;52.746;13.474;2022-07-11T09:43:24;22.40;99.90
3100;DHT22;1560;52.746;13.474;2022-07-11T09:48:30;22.60;1.00
3100;DHT22;1560;52.746;13.474;2022-07-11T09:50:58;22.70;1.00
3100;DHT22;1560;52.746;13.474;2022-07-11T09:53:29;22.90;98.40
3100;DHT22;1560;52.746;13.474;2022-07-11T09:55:58;23.00;1.00
3100;DHT22;1560;52.746;13.474;2022-07-11T09:58:29;22.90;1.00
3100;DHT22;1560;52.746;13.474;2022-07-11T10:00:59;22.80;1.00
3100;DHT22;1560;52.746;13.474;2022-07-11T10:03:28;22.20;1.00
3100;DHT22;1560;52.746;13.474;2022-07-11T10:05:57;21.50;1.00
3100;DHT22;1560;52.746;13.474;2022-07-11T10:08:26;20.90;1.00
3100;DHT22;1560;52.746;13.474;2022-07-11T10:10:54;21.20;99.90
3100;DHT22;1560;52.746;13.474;2022-07-11T10:13:24;21.70;99.90
3100;DHT22;1560;52.746;13.474;2022-07-11T10:15:54;22.30;1.00
3100;DHT22;1560;52.746;13.474;2022-07-11T10:18:31;22.70;99.90
3100;DHT22;1560;52.746;13.474;2022-07-11T10:21:01;22.90;1.00
3100;DHT22;1560;52.746;13.474;2022-07-11T10:23:34;23.10;1.00
3100;DHT22;1560;52.746;13.474;2022-07-11T10:28:43;23.30;1.00
3100;DHT22;1560;52.746;13.474;2022-07-11T10:31:18;22.50;1.00
3100;DHT22;1560;52.746;13.474;2022-07-11T10:34:01;22.70;1.00
3100;DHT22;1560;52.746;13.474;2022-07-11T10:36:32;23.00;1.00
3100;DHT22;1560;52.746;13.474;2022-07-11T10:39:20;23.40;1.00
3100;DHT22;1560;52.746;13.474;2022-07-11T10:41:51;23.70;1.00
3100;DHT22;1560;52.746;13.474;2022-07-11T10:46:56;24.10;1.00
3100;DHT22;1560;52.746;13.474;2022-07-11T10:49:35;24.30;1.00
3100;DHT22;1560;52.746;13.474;2022-07-11T10:52:06;24.00;1.00
3100;DHT22;1560;52.746;13.474;2022-07-11T10:54:46;23.70;1.00
3100;DHT22;1560;52.746;13.474;2022-07-11T10:57:21;23.70;1.00
3100;DHT22;1560;52.746;13.474;2022-07-11T10:59:57;23.70;1.00
3100;DHT22;1560;52.746;13.474;2022-07-11T11:05:04;23.90;1.00
3100;DHT22;1560;52.746;13.474;2022-07-11T11:07:38;24.40;99.90
3100;DHT22;1560;52.746;13.474;2022-07-11T11:13:12;24.90;99.90
3100;DHT22;1560;52.746;13.474;2022-07-11T11:18:41;24.20;99.90
3100;DHT22;1560;52.746;13.474;2022-07-11T11:21:21;23.70;99.90
3100;DHT22;1560;52.746;13.474;2022-07-11T11:26:46;23.80;99.90
3100;DHT22;1560;52.746;13.474;2022-07-11T11:29:20;24.20;1.00
3100;DHT22;1560;52.746;13.474;2022-07-11T11:31:56;24.50;99.90
3100;DHT22;1560;52.746;13.474;2022-07-11T11:37:02;25.20;99.90
3100;DHT22;1560;52.746;13.474;2022-07-11T11:39:33;25.40;1.00
3100;DHT22;1560;52.746;13.474;2022-07-11T11:42:06;25.40;99.90
3100;DHT22;1560;52.746;13.474;2022-07-11T11:44:46;24.90;99.90
3100;DHT22;1560;52.746;13.474;2022-07-11T11:49:43;23.80;99.90
3100;DHT22;1560;52.746;13.474;2022-07-11T11:52:12;23.80;99.90
3100;DHT22;1560;52.746;13.474;2022-07-11T11:57:16;24.20;99.90
3100;DHT22;1560;52.746;13.474;2022-07-11T11:59:45;24.10;99.90
3100;DHT22;1560;52.746;13.474;2022-07-11T12:07:34;23.00;1.00
3100;DHT22;1560;52.746;13.474;2022-07-11T12:10:04;23.10;1.00
3100;DHT22;1560;52.746;13.474;2022-07-11T12:12:33;23.70;1.00
3100;DHT22;1560;52.746;13.474;2022-07-11T12:18:02;24.80;99.90
3100;DHT22;1560;52.746;13.474;2022-07-11T12:20:43;24.90;99.90
3100;DHT22;1560;52.746;13.474;2022-07-11T12:23:15;24.80;99.90
3100;DHT22;1560;52.746;13.474;2022-07-11T12:25:43;24.60;99.90
3100;DHT22;1560;52.746;13.474;2022-07-11T12:30:55;25.00;99.90
3100;DHT22;1560;52.746;13.474;2022-07-11T12:33:24;24.60;99.90
3100;DHT22;1560;52.746;13.474;2022-07-11T12:36:00;24.40;99.90
3100;DHT22;1560;52.746;13.474;2022-07-11T12:38:48;24.00;99.90
3100;DHT22;1560;52.746;13.474;2022-07-11T12:43:54;23.40;99.90
3100;DHT22;1560;52.746;13.474;2022-07-11T12:46:41;23.30;99.90
3100;DHT22;1560;52.746;13.474;2022-07-11T12:51:46;23.20;99.90
3100;DHT22;1560;52.746;13.474;2022-07-11T12:56:56;23.30;99.90
3100;DHT22;1560;52.746;13.474;2022-07-11T12:59:26;23.40;99.90
3100;DHT22;1560;52.746;13.474;2022-07-11T13:01:57;23.40;99.90
3100;DHT22;1560;52.746;13.474;2022-07-11T13:07:29;23.40;99.90
3100;DHT22;1560;52.746;13.474;2022-07-11T13:12:53;23.10;1.00
3100;DHT22;1560;52.746;13.474;2022-07-11T13:15:23;22.70;99.90
3100;DHT22;1560;52.746;13.474;2022-07-11T13:17:53;22.80;99.90
3100;DHT22;1560;52.746;13.474;2022-07-11T13:22:58;23.20;99.90
3100;DHT22;1560;52.746;13.474;2022-07-11T13:28:05;23.80;99.90
3100;DHT22;1560;52.746;13.474;2022-07-11T13:30:35;23.70;99.90
3100;DHT22;1560;52.746;13.474;2022-07-11T13:33:04;23.80;99.90
3100;DHT22;1560;52.746;13.474;2022-07-11T13:38:10;24.10;99.90
3100;DHT22;1560;52.746;13.474;2022-07-11T13:40:38;24.10;99.90
3100;DHT22;1560;52.746;13.474;2022-07-11T13:43:07;24.10;99.90
3100;DHT22;1560;52.746;13.474;2022-07-11T13:45:36;24.10;99.90
3100;DHT22;1560;52.746;13.474;2022-07-11T13:50:42;23.90;99.90
3100;DHT22;1560;52.746;13.474;2022-07-11T13:53:12;23.80;99.90
3100;DHT22;1560;52.746;13.474;2022-07-11T13:58:16;23.40;99.90
3100;DHT22;1560;52.746;13.474;2022-07-11T14:00:55;23.40;99.90
3100;DHT22;1560;52.746;13.474;2022-07-11T14:03:23;23.20;99.90
3100;DHT22;1560;52.746;13.474;2022-07-11T14:05:52;23.10;99.90
3100;DHT22;1560;52.746;13.474;2022-07-11T14:10:57;23.10;1.00
3100;DHT22;1560;52.746;13.474;2022-07-11T14:13:26;23.10;1.00
3100;DHT22;1560;52.746;13.474;2022-07-11T14:15:55;23.00;99.90
3100;DHT22;1560;52.746;13.474;2022-07-11T14:18:23;23.00;99.90
3100;DHT22;1560;52.746;13.474;2022-07-11T14:20:52;23.00;99.90
3100;DHT22;1560;52.746;13.474;2022-07-11T14:25:59;23.10;99.90
3100;DHT22;1560;52.746;13.474;2022-07-11T14:31:05;22.80;99.90
3100;DHT22;1560;52.746;13.474;2022-07-11T14:33:35;22.70;99.90
3100;DHT22;1560;52.746;13.474;2022-07-11T14:38:40;22.60;99.90
3100;DHT22;1560;52.746;13.474;2022-07-11T14:43:46;22.40;99.90
3100;DHT22;1560;52.746;13.474;2022-07-11T14:46:16;22.40;99.90
3100;DHT22;1560;52.746;13.474;2022-07-11T14:51:22;22.70;99.90
3100;DHT22;1560;52.746;13.474;2022-07-11T14:56:27;22.70;99.90
3100;DHT22;1560;52.746;13.474;2022-07-11T14:58:56;22.60;99.90
3100;DHT22;1560;52.746;13.474;2022-07-11T15:01:25;22.50;99.90
3100;DHT22;1560;52.746;13.474;2022-07-11T15:03:54;22.50;99.90
3100;DHT22;1560;52.746;13.474;2022-07-11T15:06:22;22.40;99.90
3100;DHT22;1560;52.746;13.474;2022-07-11T15:08:53;22.40;99.90
3100;DHT22;1560;52.746;13.474;2022-07-11T15:14:15;22.40;1.00
3100;DHT22;1560;52.746;13.474;2022-07-11T15:19:20;22.40;1.00
3100;DHT22;1560;52.746;13.474;2022-07-11T15:21:49;22.30;1.00
3100;DHT22;1560;52.746;13.474;2022-07-11T15:26:53;22.30;1.00
3100;DHT22;1560;52.746;13.474;2022-07-11T15:29:23;22.40;1.00
3100;DHT22;1560;52.746;13.474;2022-07-11T15:31:53;22.50;1.00
3100;DHT22;1560;52.746;13.474;2022-07-11T15:36:58;22.30;1.00
3100;DHT22;1560;52.746;13.474;2022-07-11T15:39:27;22.20;1.00
3100;DHT22;1560;52.746;13.474;2022-07-11T15:41:55;22.20;1.00
3100;DHT22;1560;52.746;13.474;2022-07-11T15:44:24;22.20;1.00
3100;DHT22;1560;52.746;13.474;2022-07-11T15:46:53;22.20;1.00
3100;DHT22;1560;52.746;13.474;2022-07-11T15:49:22;22.20;1.00
3100;DHT22;1560;52.746;13.474;2022-07-11T15:51:50;22.10;1.00
3100;DHT22;1560;52.746;13.474;2022-07-11T15:56:55;22.30;1.00
3100;DHT22;1560;52.746;13.474;2022-07-11T16:02:01;22.30;1.00
3100;DHT22;1560;52.746;13.474;2022-07-11T16:04:30;22.00;1.00
3100;DHT22;1560;52.746;13.474;2022-07-11T16:06:59;22.00;1.00
3100;DHT22;1560;52.746;13.474;2022-07-11T16:09:28;22.00;1.00
3100;DHT22;1560;52.746;13.474;2022-07-11T16:11:57;21.90;1.00
3100;DHT22;1560;52.746;13.474;2022-07-11T16:14:26;21.90;1.00
3100;DHT22;1560;52.746;13.474;2022-07-11T16:16:55;21.80;1.00
3100;DHT22;1560;52.746;13.474;2022-07-11T16:19:23;21.90;1.00
3100;DHT22;1560;52.746;13.474;2022-07-11T16:21:53;21.90;1.00
3100;DHT22;1560;52.746;13.474;2022-07-11T16:24:24;21.90;1.00
3100;DHT22;1560;52.746;13.474;2022-07-11T16:29:30;22.00;1.00
3100;DHT22;1560;52.746;13.474;2022-07-11T16:34:36;22.10;1.00
3100;DHT22;1560;52.746;13.474;2022-07-11T16:37:05;22.10;1.00
3100;DHT22;1560;52.746;13.474;2022-07-11T16:39:33;22.00;1.00
3100;DHT22;1560;52.746;13.474;2022-07-11T16:44:56;22.10;1.00
3100;DHT22;1560;52.746;13.474;2022-07-11T16:50:00;22.10;1.00
3100;DHT22;1560;52.746;13.474;2022-07-11T16:52:29;22.10;1.00
3100;DHT22;1560;52.746;13.474;2022-07-11T16:57:36;22.10;1.00
3100;DHT22;1560;52.746;13.474;2022-07-11T17:00:07;22.00;1.00
3100;DHT22;1560;52.746;13.474;2022-07-11T17:02:37;21.90;1.00
3100;DHT22;1560;52.746;13.474;2022-07-11T17:07:49;21.90;1.00
3100;DHT22;1560;52.746;13.474;2022-07-11T17:10:36;22.00;1.00
3100;DHT22;1560;52.746;13.474;2022-07-11T17:13:04;22.20;1.00
3100;DHT22;1560;52.746;13.474;2022-07-11T17:18:09;22.20;1.00
3100;DHT22;1560;52.746;13.474;2022-07-11T17:23:15;22.00;1.00
3100;DHT22;1560;52.746;13.474;2022-07-11T17:25:45;22.00;1.00
3100;DHT22;1560;52.746;13.474;2022-07-11T17:28:14;21.90;1.00
3100;DHT22;1560;52.746;13.474;2022-07-11T17:33:20;21.80;1.00
3100;DHT22;1560;52.746;13.474;2022-07-11T17:35:49;21.80;1.00
3100;DHT22;1560;52.746;13.474;2022-07-11T17:38:18;21.80;1.00
3100;DHT22;1560;52.746;13.474;2022-07-11T17:40:47;21.80;1.00
3100;DHT22;1560;52.746;13.474;2022-07-11T17:43:16;21.70;1.00
3100;DHT22;1560;52.746;13.474;2022-07-11T17:45:45;21.60;1.00
3100;DHT22;1560;52.746;13.474;2022-07-11T17:48:14;21.50;1.00
3100;DHT22;1560;52.746;13.474;2022-07-11T17:50:45;21.50;1.00
3100;DHT22;1560;52.746;13.474;2022-07-11T17:53:14;21.40;1.00
3100;DHT22;1560;52.746;13.474;2022-07-11T17:55:43;21.30;1.00
3100;DHT22;1560;52.746;13.474;2022-07-11T17:58:11;21.30;1.00
3100;DHT22;1560;52.746;13.474;2022-07-11T18:00:41;21.20;1.00
3100;DHT22;1560;52.746;13.474;2022-07-11T18:03:11;21.10;1.00
3100;DHT22;1560;52.746;13.474;2022-07-11T18:05:39;21.10;1.00
3100;DHT22;1560;52.746;13.474;2022-07-11T18:08:08;21.10;21.60
3100;DHT22;1560;52.746;13.474;2022-07-11T18:10:37;21.00;1.00
3100;DHT22;1560;52.746;13.474;2022-07-11T18:13:05;21.10;1.00
3100;DHT22;1560;52.746;13.474;2022-07-11T18:15:34;21.00;99.90
3100;DHT22;1560;52.746;13.474;2022-07-11T18:18:03;20.90;1.00
3100;DHT22;1560;52.746;13.474;2022-07-11T18:20:32;20.90;1.00
3100;DHT22;1560;52.746;13.474;2022-07-11T18:23:01;20.90;1.00
3100;DHT22;1560;52.746;13.474;2022-07-11T18:28:07;21.00;1.00
3100;DHT22;1560;52.746;13.474;2022-07-11T18:30:36;21.10;96.70
3100;DHT22;1560;52.746;13.474;2022-07-11T18:33:05;21.10;99.90
3100;DHT22;1560;52.746;13.474;2022-07-11T18:35:33;21.10;99.90
3100;DHT22;1560;52.746;13.474;2022-07-11T18:38:02;21.10;99.90
3100;DHT22;1560;52.746;13.474;2022-07-11T18:43:08;21.10;99.90
3100;DHT22;1560;52.746;13.474;2022-07-11T18:45:37;21.00;99.90
3100;DHT22;1560;52.746;13.474;2022-07-11T18:48:06;20.90;1.00
3100;DHT22;1560;52.746;13.474;2022-07-11T18:50:35;20.90;31.20
3100;DHT22;1560;52.746;13.474;2022-07-11T18:55:40;20.90;1.00
3100;DHT22;1560;52.746;13.474;2022-07-11T18:58:10;20.90;1.00
3100;DHT22;1560;52.746;13.474;2022-07-11T19:00:38;20.70;98.50
3100;DHT22;1560;52.746;13.474;2022-07-11T19:03:08;20.70;99.90
3100;DHT22;1560;52.746;13.474;2022-07-11T19:05:36;20.70;99.90
3100;DHT22;1560;52.746;13.474;2022-07-11T19:10:42;20.70;99.90
3100;DHT22;1560;52.746;13.474;2022-07-11T19:13:11;20.60;99.90
3100;DHT22;1560;52.746;13.474;2022-07-11T19:15:39;20.60;99.90
3100;DHT22;1560;52.746;13.474;2022-07-11T19:20:44;20.60;99.90
3100;DHT22;1560;52.746;13.474;2022-07-11T19:23:13;20.60;99.90
3100;DHT22;1560;52.746;13.474;2022-07-11T19:25:42;20.60;99.90
3100;DHT22;1560;52.746;13.474;2022-07-11T19:28:12;20.50;99.90
3100;DHT22;1560;52.746;13.474;2022-07-11T19:30:40;20.50;99.90
3100;DHT22;1560;52.746;13.474;2022-07-11T19:33:09;20.50;1.00
3100;DHT22;1560;52.746;13.474;2022-07-11T19:35:38;20.40;99.90
3100;DHT22;1560;52.746;13.474;2022-07-11T19:38:07;20.40;99.90
3100;DHT22;1560;52.746;13.474;2022-07-11T19:40:36;20.30;99.90
3100;DHT22;1560;52.746;13.474;2022-07-11T19:43:05;20.30;99.90
3100;DHT22;1560;52.746;13.474;2022-07-11T19:45:34;20.20;99.90
3100;DHT22;1560;52.746;13.474;2022-07-11T19:48:03;20.20;18.90
3100;DHT22;1560;52.746;13.474;2022-07-11T19:50:32;20.10;1.00
3100;DHT22;1560;52.746;13.474;2022-07-11T19:53:00;20.10;1.00
3100;DHT22;1560;52.746;13.474;2022-07-11T19:55:29;20.10;99.90
3100;DHT22;1560;52.746;13.474;2022-07-11T20:00:53;20.00;99.90
3100;DHT22;1560;52.746;13.474;2022-07-11T20:03:22;19.90;99.90
3100;DHT22;1560;52.746;13.474;2022-07-11T20:08:26;19.80;99.90
3100;DHT22;1560;52.746;13.474;2022-07-11T20:10:55;19.70;51.00
3100;DHT22;1560;52.746;13.474;2022-07-11T20:13:25;19.60;99.90
3100;DHT22;1560;52.746;13.474;2022-07-11T20:15:53;19.60;99.90
3100;DHT22;1560;52.746;13.474;2022-07-11T20:20:59;19.40;99.90
3100;DHT22;1560;52.746;13.474;2022-07-11T20:23:28;19.30;99.90
3100;DHT22;1560;52.746;13.474;2022-07-11T20:28:33;19.20;99.90
3100;DHT22;1560;52.746;13.474;2022-07-11T20:31:02;19.10;1.00
3100;DHT22;1560;52.746;13.474;2022-07-11T20:33:32;19.10;1.00
3100;DHT22;1560;52.746;13.474;2022-07-11T20:36:00;19.10;1.00
3100;DHT22;1560;52.746;13.474;2022-07-11T20:38:29;19.00;1.00
3100;DHT22;1560;52.746;13.474;2022-07-11T20:40:58;18.90;1.00
3100;DHT22;1560;52.746;13.474;2022-07-11T20:46:04;18.80;1.00
3100;DHT22;1560;52.746;13.474;2022-07-11T20:48:35;18.80;1.00
3100;DHT22;1560;52.746;13.474;2022-07-11T20:51:03;18.70;1.00
3100;DHT22;1560;52.746;13.474;2022-07-11T20:53:32;18.60;5.60
3100;DHT22;1560;52.746;13.474;2022-07-11T20:56:01;18.60;99.90
3100;DHT22;1560;52.746;13.474;2022-07-11T20:58:29;18.60;99.90
3100;DHT22;1560;52.746;13.474;2022-07-11T21:03:34;18.50;99.90
3100;DHT22;1560;52.746;13.474;2022-07-11T21:06:03;18.40;99.90
3100;DHT22;1560;52.746;13.474;2022-07-11T21:08:31;18.40;1.00